Time;durP1;ratioP1;P1;durP2;ratioP2;P2;SDS_P1;SDS_P2;PMS_P1;PMS_P2;Temp;Humidity;BMP_temperature;BMP_pressure;BME280_temperature;BME280_humidity;BME280_pressure;Samples;Min_cycle;Max_cycle;Signal;HPM_P1;HPM_P2
2020/12/11 00:01:23;;;;;;;55.52;23.70;;;;;;;0.52;100.00;99817.44;10507503;82;21005;-84
2020/12/11 00:16:27;;;;;;;56.42;22.17;;;;;;;0.55;100.00;99814.22;10523163;82;21116;-83
2020/12/11 00:31:32;;;;;;;52.13;19.65;;;;;;;0.60;100.00;99811.41;10259765;85;21066;-81
2020/12/11 00:46:36;;;;;;;64.03;26.42;;;;;;;0.59;100.00;99820.88;10587546;82;21028;-85
2020/12/11 01:01:41;;;;;;;50.95;20.27;;;;;;;0.61;100.00;99813.07;10567115;83;21128;-82
2020/12/11 01:16:45;;;;;;;59.77;22.05;;;;;;;0.57;100.00;99810.25;10638368;83;21056;-81
2020/12/11 01:31:50;;;;;;;46.00;18.23;;;;;;;0.67;100.00;99806.27;10527625;83;21186;-82
2020/12/11 01:46:58;;;;;;;51.45;17.55;;;;;;;0.69;100.00;99808.76;10589982;83;21077;-82
2020/12/11 02:02:05;;;;;;;79.95;27.82;;;;;;;0.75;100.00;99788.63;10816471;81;21024;-84
2020/12/11 02:17:10;;;;;;;55.43;20.95;;;;;;;0.82;100.00;99774.44;10584279;83;21549;-84
2020/12/11 02:32:14;;;;;;;58.78;19.73;;;;;;;0.82;100.00;99774.44;10503953;84;21189;-84
2020/12/11 02:47:19;;;;;;;75.83;26.95;;;;;;;0.93;100.00;99779.47;10222369;86;21537;-84
2020/12/11 03:02:24;;;;;;;52.10;19.37;;;;;;;1.10;100.00;99774.18;10577788;83;21510;-83
2020/12/11 03:17:30;;;;;;;51.95;21.05;;;;;;;1.13;100.00;99776.58;10568008;84;21145;-83
2020/12/11 03:32:35;;;;;;;60.55;24.02;;;;;;;1.16;100.00;99760.07;10490828;83;21447;-83
2020/12/11 03:47:40;;;;;;;55.58;22.50;;;;;;;1.24;100.00;99757.05;10407699;84;21564;-85
2020/12/11 04:02:44;;;;;;;65.15;24.43;;;;;;;1.26;100.00;99756.52;10624948;82;22087;-85
2020/12/11 04:17:49;;;;;;;67.95;24.15;;;;;;;1.30;100.00;99761.40;10596040;82;21065;-85
2020/12/11 04:32:54;;;;;;;72.15;27.52;;;;;;;1.35;100.00;99757.27;10733981;82;21032;-85
2020/12/11 04:48:01;;;;;;;76.20;30.82;;;;;;;1.39;100.00;99749.70;10860570;82;21087;-85
2020/12/11 05:03:06;;;;;;;79.40;29.13;;;;;;;1.48;100.00;99748.34;10887699;82;21039;-85
2020/12/11 05:18:19;;;;;;;87.10;30.08;;;;;;;1.47;100.00;99765.59;10849919;80;21067;-82
2020/12/11 05:33:23;;;;;;;205.72;71.67;;;;;;;1.48;100.00;99754.81;10843475;80;21075;-83
2020/12/11 05:48:38;;;;;;;100.62;36.93;;;;;;;1.48;100.00;99754.81;10718291;82;21088;-84
2020/12/11 06:03:44;;;;;;;102.35;37.38;;;;;;;1.58;100.00;99756.38;10720242;82;21006;-84
2020/12/11 06:18:53;;;;;;;126.53;40.40;;;;;;;1.61;100.00;99764.80;10727415;82;21006;-84
2020/12/11 06:33:58;;;;;;;103.22;34.23;;;;;;;1.61;100.00;99757.05;10724282;81;21041;-84
2020/12/11 06:49:09;;;;;;;102.67;33.60;;;;;;;1.56;100.00;99757.77;10861403;81;21523;-84
2020/12/11 07:04:14;;;;;;;87.12;30.80;;;;;;;1.65;100.00;99777.91;10862234;82;20972;-80
2020/12/11 07:19:18;;;;;;;99.55;43.02;;;;;;;1.65;100.00;99777.91;10777261;82;21002;-82
2020/12/11 07:34:25;;;;;;;117.62;50.40;;;;;;;1.63;100.00;99785.39;10704022;80;21472;-83
2020/12/11 07:49:36;;;;;;;75.30;28.32;;;;;;;1.71;100.00;99788.34;10528428;83;21085;-80
2020/12/11 08:04:40;;;;;;;96.15;35.95;;;;;;;1.60;100.00;99775.23;10507119;83;21044;-82
2020/12/11 08:19:45;;;;;;;219.40;68.33;;;;;;;1.83;100.00;99793.25;10573806;82;21104;-81
2020/12/11 08:34:49;;;;;;;431.17;118.35;;;;;;;1.82;100.00;99776.91;10543462;82;22478;-80
2020/12/11 08:49:56;;;;;;;101.80;42.05;;;;;;;1.82;100.00;99776.91;10739138;82;21077;-81
2020/12/11 09:05:00;;;;;;;92.67;37.80;;;;;;;1.94;100.00;99792.16;10756956;82;21513;-81
2020/12/11 09:20:07;;;;;;;98.90;40.67;;;;;;;1.93;100.00;99806.49;10764608;82;21051;-81
2020/12/11 09:35:11;;;;;;;123.07;61.45;;;;;;;2.00;100.00;99802.59;10799931;82;21149;-81
2020/12/11 09:50:32;;;;;;;167.25;79.55;;;;;;;2.03;100.00;99804.17;10820859;82;21071;-81
2020/12/11 10:05:34;;;;;;;171.60;68.97;;;;;;;2.06;100.00;99798.36;10853295;82;21043;-82
2020/12/11 10:20:41;;;;;;;184.57;67.90;;;;;;;2.11;100.00;99795.03;10838665;82;21011;-81
2020/12/11 10:35:44;;;;;;;83.67;33.43;;;;;;;2.09;100.00;99790.40;10837251;82;21041;-83
2020/12/11 10:50:49;;;;;;;179.97;58.40;;;;;;;2.07;100.00;99754.74;10792489;82;21052;-81
2020/12/11 11:05:53;;;;;;;117.05;42.93;;;;;;;2.07;100.00;99757.33;10766449;80;21410;-81
2020/12/11 11:21:19;;;;;;;358.20;107.72;;;;;;;2.05;100.00;99753.99;10658063;82;21020;-81
2020/12/11 11:36:12;;;;;;;139.62;44.98;;;;;;;2.31;100.00;99748.51;10716552;81;21000;-82
2020/12/11 11:51:20;;;;;;;140.82;47.00;;;;;;;2.35;100.00;99728.45;10749883;82;21664;-80
2020/12/11 12:06:23;;;;;;;121.70;46.50;;;;;;;2.43;100.00;99726.64;10459045;83;21078;-80
2020/12/11 12:21:36;;;;;;;125.75;46.60;;;;;;;2.42;100.00;99722.41;10517551;83;21043;-81
2020/12/11 12:36:58;;;;;;;137.90;46.65;;;;;;;2.25;100.00;99706.64;10547913;82;21102;-81
2020/12/11 12:52:00;;;;;;;147.93;54.60;;;;;;;2.24;100.00;99704.98;10770370;82;21099;-80
2020/12/11 13:07:06;;;;;;;133.20;49.38;;;;;;;2.24;100.00;99704.98;10768142;82;21056;-80
2020/12/11 13:22:24;;;;;;;133.95;52.03;;;;;;;2.23;100.00;99707.19;10740687;82;21543;-80
2020/12/11 13:37:28;;;;;;;121.28;47.30;;;;;;;2.29;100.00;99701.16;10469011;84;21109;-81
2020/12/11 13:52:31;;;;;;;129.87;52.27;;;;;;;2.30;100.00;99696.84;10647200;82;21084;-81
2020/12/11 14:07:36;;;;;;;114.22;45.05;;;;;;;2.33;100.00;99709.09;10641689;82;21009;-81
2020/12/11 14:22:49;;;;;;;91.15;36.75;;;;;;;2.24;100.00;99693.33;10515361;84;21071;-80
2020/12/11 14:37:50;;;;;;;109.63;42.98;;;;;;;2.13;100.00;99690.95;10687963;81;21040;-80
2020/12/11 14:52:54;;;;;;;142.18;57.58;;;;;;;2.03;100.00;99679.50;10603671;82;21008;-80
2020/12/11 15:07:59;;;;;;;220.07;77.17;;;;;;;2.05;100.00;99667.78;10537491;82;21017;-80
2020/12/11 15:23:03;;;;;;;263.35;91.47;;;;;;;2.05;100.00;99667.78;10818141;82;21061;-80
2020/12/11 15:38:08;;;;;;;208.13;69.07;;;;;;;2.00;100.00;99646.88;10717283;82;21317;-80
2020/12/11 15:53:12;;;;;;;501.90;149.60;;;;;;;2.10;100.00;99654.92;10671671;82;21035;-80
2020/12/11 16:08:17;;;;;;;259.52;91.47;;;;;;;2.06;100.00;99630.61;10782267;80;21078;-80
2020/12/11 16:23:22;;;;;;;443.17;192.60;;;;;;;2.08;100.00;99637.83;10730895;81;21044;-81
2020/12/11 16:38:26;;;;;;;153.53;49.13;;;;;;;2.00;100.00;99642.19;10371499;84;21123;-82
2020/12/11 16:53:32;;;;;;;289.10;85.07;;;;;;;1.99;100.00;99654.30;10468347;83;21033;-79
2020/12/11 17:08:44;;;;;;;451.95;113.83;;;;;;;2.05;100.00;99674.25;10601098;82;21068;-79
2020/12/11 17:23:47;;;;;;;261.57;73.60;;;;;;;2.16;100.00;99667.92;10525551;83;21080;-79
2020/12/11 17:38:52;;;;;;;289.80;81.25;;;;;;;2.11;100.00;99648.82;10502881;81;21462;-80
2020/12/11 17:53:56;;;;;;;387.50;106.03;;;;;;;2.27;100.00;99665.50;10408708;83;22387;-80
2020/12/11 18:09:03;;;;;;;392.60;116.80;;;;;;;2.22;100.00;99660.23;10404324;83;21147;-80
2020/12/11 18:24:12;;;;;;;275.33;83.00;;;;;;;2.35;100.00;99648.64;10468587;83;21445;-79
2020/12/11 18:39:15;;;;;;;207.32;76.47;;;;;;;2.33;100.00;99642.27;10590366;82;21675;-81
2020/12/11 18:54:22;;;;;;;151.10;53.15;;;;;;;2.32;100.00;99628.95;10758786;82;21111;-81
2020/12/11 19:09:26;;;;;;;122.60;48.87;;;;;;;2.31;100.00;99618.26;10817987;80;21017;-81
2020/12/11 19:24:30;;;;;;;177.15;57.95;;;;;;;2.44;100.00;99613.09;10767965;82;21135;-83
2020/12/11 19:39:41;;;;;;;115.28;40.92;;;;;;;2.47;100.00;99601.27;10784244;80;21013;-83
2020/12/11 19:54:42;;;;;;;160.23;54.87;;;;;;;2.40;100.00;99600.84;10771957;81;21474;-84
2020/12/11 20:09:47;;;;;;;493.15;211.35;;;;;;;2.50;100.00;99599.28;10571924;82;21048;-84
2020/12/11 20:24:52;;;;;;;159.45;56.23;;;;;;;2.50;100.00;99599.28;10581644;82;21079;-83
2020/12/11 20:39:59;;;;;;;75.42;30.72;;;;;;;2.37;100.00;99576.90;10797894;82;21032;-83
2020/12/11 20:55:05;;;;;;;103.07;42.17;;;;;;;2.44;100.00;99572.52;10649933;82;21049;-82
2020/12/11 21:10:11;;;;;;;497.95;141.62;;;;;;;2.42;100.00;99574.36;10762744;82;21527;-81
2020/12/11 21:25:16;;;;;;;136.35;45.12;;;;;;;2.48;100.00;99560.17;10798797;81;21063;-81
2020/12/11 21:40:23;;;;;;;213.77;61.45;;;;;;;2.47;100.00;99562.42;10754989;81;21044;-82
2020/12/11 21:55:27;;;;;;;327.63;85.00;;;;;;;2.41;100.00;99553.28;10690847;82;21447;-82
2020/12/11 22:10:31;;;;;;;214.00;58.33;;;;;;;2.49;100.00;99539.39;10717712;82;21045;-81
2020/12/11 22:25:37;;;;;;;361.43;96.40;;;;;;;2.53;100.00;99515.39;10710191;82;21064;-83
2020/12/11 22:40:43;;;;;;;141.10;49.13;;;;;;;2.50;100.00;99511.25;10736628;81;21678;-82
2020/12/11 22:55:47;;;;;;;197.87;56.35;;;;;;;2.48;100.00;99509.24;10810756;82;21074;-82
2020/12/11 23:10:54;;;;;;;176.15;59.30;;;;;;;2.64;100.00;99502.56;10787705;82;21083;-81
2020/12/11 23:26:09;;;;;;;330.20;73.52;;;;;;;2.66;100.00;99494.69;10767989;82;21174;-80
2020/12/11 23:41:13;;;;;;;148.10;45.45;;;;;;;2.61;100.00;99489.83;10841440;82;21049;-83
2020/12/11 23:56:25;;;;;;;109.60;39.08;;;;;;;2.71;100.00;99487.91;10673357;82;21068;-80
